Fairmont, Ohio
Current Conditions -  °F | °C
As of 9:56 AM on Friday 19 Dec 2014 (Local Time) from KI69 Reporting Station
Overcast Overcast  
Wind Chill: 30°   Ceiling: 2000
Heat Index: 30°   Visibility: 10mi
Dew Point: 25°   Wind: 0mph
Humidity: 80%   Direction: NA
Pressure: 30.29"   Gusts: NA
Location:  39.1585°N, 84.5998°W
Report Text: KI69 191456Z AUTO 00000KT 10SM OVC020 M01/M04 A3029 RMK AO1
Loading
Personal Weather Stations






























Interactive Weather Map New forecast layout! Learn more

10-Day Weather Forecast

Advertisements
Track Severe Weather on mobile